sensor_id;sensor_type;location;lat;lon;timestamp;P1;durP1;ratioP1;P2;durP2;ratioP2
35795;SDS011;21916;52.428;13.302;2023-04-15T00:00:44;41.25;;;27.30;;
35795;SDS011;21916;52.428;13.302;2023-04-15T00:03:10;40.53;;;26.50;;
35795;SDS011;21916;52.428;13.302;2023-04-15T00:05:36;42.75;;;27.40;;
35795;SDS011;21916;52.428;13.302;2023-04-15T00:08:03;41.28;;;27.67;;
35795;SDS011;21916;52.428;13.302;2023-04-15T00:10:30;40.97;;;27.25;;
35795;SDS011;21916;52.428;13.302;2023-04-15T00:12:56;43.28;;;28.90;;
35795;SDS011;21916;52.428;13.302;2023-04-15T00:15:22;48.60;;;29.75;;
35795;SDS011;21916;52.428;13.302;2023-04-15T00:17:49;47.58;;;30.65;;
35795;SDS011;21916;52.428;13.302;2023-04-15T00:20:16;43.97;;;29.38;;
35795;SDS011;21916;52.428;13.302;2023-04-15T00:22:42;47.20;;;29.65;;
35795;SDS011;21916;52.428;13.302;2023-04-15T00:25:08;45.63;;;30.48;;
35795;SDS011;21916;52.428;13.302;2023-04-15T00:27:34;46.97;;;30.45;;
35795;SDS011;21916;52.428;13.302;2023-04-15T00:30:00;47.00;;;30.50;;
35795;SDS011;21916;52.428;13.302;2023-04-15T00:32:26;46.60;;;29.27;;
35795;SDS011;21916;52.428;13.302;2023-04-15T00:34:52;49.30;;;32.47;;
35795;SDS011;21916;52.428;13.302;2023-04-15T00:37:18;46.40;;;31.10;;
35795;SDS011;21916;52.428;13.302;2023-04-15T00:39:44;49.33;;;31.42;;
35795;SDS011;21916;52.428;13.302;2023-04-15T00:42:11;52.83;;;32.78;;
35795;SDS011;21916;52.428;13.302;2023-04-15T00:44:38;51.83;;;33.15;;
35795;SDS011;21916;52.428;13.302;2023-04-15T00:47:05;51.08;;;32.95;;
35795;SDS011;21916;52.428;13.302;2023-04-15T00:49:31;51.53;;;32.72;;
35795;SDS011;21916;52.428;13.302;2023-04-15T00:51:57;51.63;;;33.65;;
35795;SDS011;21916;52.428;13.302;2023-04-15T00:54:23;55.15;;;34.72;;
35795;SDS011;21916;52.428;13.302;2023-04-15T00:56:49;54.60;;;31.70;;
35795;SDS011;21916;52.428;13.302;2023-04-15T00:59:16;55.28;;;34.53;;
35795;SDS011;21916;52.428;13.302;2023-04-15T01:01:43;52.03;;;34.03;;
35795;SDS011;21916;52.428;13.302;2023-04-15T01:04:09;51.78;;;32.55;;
35795;SDS011;21916;52.428;13.302;2023-04-15T01:06:37;53.85;;;35.55;;
35795;SDS011;21916;52.428;13.302;2023-04-15T01:09:03;56.10;;;35.20;;
35795;SDS011;21916;52.428;13.302;2023-04-15T01:11:30;55.72;;;33.83;;
35795;SDS011;21916;52.428;13.302;2023-04-15T01:13:59;58.85;;;35.00;;
35795;SDS011;21916;52.428;13.302;2023-04-15T01:16:30;60.00;;;36.00;;
35795;SDS011;21916;52.428;13.302;2023-04-15T01:18:57;59.40;;;35.63;;
35795;SDS011;21916;52.428;13.302;2023-04-15T01:21:23;59.17;;;37.30;;
35795;SDS011;21916;52.428;13.302;2023-04-15T01:23:50;58.95;;;36.17;;
35795;SDS011;21916;52.428;13.302;2023-04-15T01:26:20;58.15;;;34.70;;
35795;SDS011;21916;52.428;13.302;2023-04-15T01:28:47;58.80;;;36.72;;
35795;SDS011;21916;52.428;13.302;2023-04-15T01:31:13;64.55;;;37.30;;
35795;SDS011;21916;52.428;13.302;2023-04-15T01:33:40;59.30;;;37.08;;
35795;SDS011;21916;52.428;13.302;2023-04-15T01:36:26;64.95;;;37.45;;
35795;SDS011;21916;52.428;13.302;2023-04-15T01:38:52;63.20;;;37.60;;
35795;SDS011;21916;52.428;13.302;2023-04-15T01:41:23;61.83;;;37.88;;
35795;SDS011;21916;52.428;13.302;2023-04-15T01:43:53;67.10;;;40.38;;
35795;SDS011;21916;52.428;13.302;2023-04-15T01:46:21;58.83;;;37.50;;
35795;SDS011;21916;52.428;13.302;2023-04-15T01:48:49;66.63;;;38.10;;
35795;SDS011;21916;52.428;13.302;2023-04-15T01:51:16;66.53;;;37.22;;
35795;SDS011;21916;52.428;13.302;2023-04-15T01:53:43;60.10;;;36.35;;
35795;SDS011;21916;52.428;13.302;2023-04-15T01:56:11;58.15;;;35.75;;
35795;SDS011;21916;52.428;13.302;2023-04-15T01:58:38;62.47;;;37.42;;
35795;SDS011;21916;52.428;13.302;2023-04-15T02:01:06;60.08;;;37.58;;
35795;SDS011;21916;52.428;13.302;2023-04-15T02:03:36;68.18;;;39.95;;
35795;SDS011;21916;52.428;13.302;2023-04-15T02:06:04;63.78;;;37.90;;
35795;SDS011;21916;52.428;13.302;2023-04-15T02:08:32;68.93;;;37.70;;
35795;SDS011;21916;52.428;13.302;2023-04-15T02:10:59;63.58;;;37.75;;
35795;SDS011;21916;52.428;13.302;2023-04-15T02:13:27;61.63;;;37.85;;
35795;SDS011;21916;52.428;13.302;2023-04-15T02:15:57;63.55;;;37.83;;
35795;SDS011;21916;52.428;13.302;2023-04-15T02:18:25;63.42;;;38.00;;
35795;SDS011;21916;52.428;13.302;2023-04-15T02:20:52;65.85;;;38.58;;
35795;SDS011;21916;52.428;13.302;2023-04-15T02:23:20;71.55;;;39.72;;
35795;SDS011;21916;52.428;13.302;2023-04-15T02:25:47;62.33;;;37.92;;
35795;SDS011;21916;52.428;13.302;2023-04-15T02:28:15;66.10;;;39.88;;
35795;SDS011;21916;52.428;13.302;2023-04-15T02:30:46;62.70;;;37.75;;
35795;SDS011;21916;52.428;13.302;2023-04-15T02:33:18;67.10;;;36.63;;
35795;SDS011;21916;52.428;13.302;2023-04-15T02:35:45;66.10;;;37.67;;
35795;SDS011;21916;52.428;13.302;2023-04-15T02:38:13;63.33;;;36.38;;
35795;SDS011;21916;52.428;13.302;2023-04-15T02:40:42;65.18;;;37.72;;
35795;SDS011;21916;52.428;13.302;2023-04-15T02:43:12;62.00;;;36.05;;
35795;SDS011;21916;52.428;13.302;2023-04-15T02:45:39;61.85;;;37.13;;
35795;SDS011;21916;52.428;13.302;2023-04-15T02:48:09;66.88;;;37.95;;
35795;SDS011;21916;52.428;13.302;2023-04-15T02:50:36;61.38;;;36.13;;
35795;SDS011;21916;52.428;13.302;2023-04-15T02:53:08;64.95;;;35.88;;
35795;SDS011;21916;52.428;13.302;2023-04-15T02:55:36;63.65;;;36.33;;
35795;SDS011;21916;52.428;13.302;2023-04-15T02:58:03;60.42;;;35.55;;
35795;SDS011;21916;52.428;13.302;2023-04-15T03:00:30;58.97;;;35.95;;
35795;SDS011;21916;52.428;13.302;2023-04-15T03:03:02;63.60;;;35.10;;
35795;SDS011;21916;52.428;13.302;2023-04-15T03:05:31;59.60;;;35.60;;
35795;SDS011;21916;52.428;13.302;2023-04-15T03:07:59;65.40;;;35.97;;
35795;SDS011;21916;52.428;13.302;2023-04-15T03:10:27;63.95;;;36.30;;
35795;SDS011;21916;52.428;13.302;2023-04-15T03:12:54;60.45;;;35.53;;
35795;SDS011;21916;52.428;13.302;2023-04-15T03:15:24;60.05;;;34.85;;
35795;SDS011;21916;52.428;13.302;2023-04-15T03:17:54;61.22;;;36.78;;
35795;SDS011;21916;52.428;13.302;2023-04-15T03:20:22;57.05;;;34.13;;
35795;SDS011;21916;52.428;13.302;2023-04-15T03:22:49;56.75;;;33.88;;
35795;SDS011;21916;52.428;13.302;2023-04-15T03:25:18;59.28;;;35.03;;
35795;SDS011;21916;52.428;13.302;2023-04-15T03:27:45;58.63;;;33.83;;
35795;SDS011;21916;52.428;13.302;2023-04-15T03:30:13;60.92;;;37.42;;
35795;SDS011;21916;52.428;13.302;2023-04-15T03:32:41;65.80;;;36.28;;
35795;SDS011;21916;52.428;13.302;2023-04-15T03:35:08;56.40;;;34.08;;
35795;SDS011;21916;52.428;13.302;2023-04-15T03:37:36;64.13;;;36.88;;
35795;SDS011;21916;52.428;13.302;2023-04-15T03:40:03;55.53;;;33.63;;
35795;SDS011;21916;52.428;13.302;2023-04-15T03:42:31;62.08;;;35.13;;
35795;SDS011;21916;52.428;13.302;2023-04-15T03:44:58;58.30;;;33.28;;
35795;SDS011;21916;52.428;13.302;2023-04-15T03:47:26;62.42;;;34.20;;
35795;SDS011;21916;52.428;13.302;2023-04-15T03:49:53;57.92;;;34.88;;
35795;SDS011;21916;52.428;13.302;2023-04-15T03:52:20;59.83;;;36.33;;
35795;SDS011;21916;52.428;13.302;2023-04-15T03:54:47;57.50;;;35.38;;
35795;SDS011;21916;52.428;13.302;2023-04-15T03:57:14;63.05;;;35.53;;
35795;SDS011;21916;52.428;13.302;2023-04-15T03:59:41;63.92;;;36.92;;
35795;SDS011;21916;52.428;13.302;2023-04-15T04:02:09;61.92;;;35.05;;
35795;SDS011;21916;52.428;13.302;2023-04-15T04:04:36;59.22;;;35.03;;
35795;SDS011;21916;52.428;13.302;2023-04-15T04:07:03;56.58;;;34.05;;
35795;SDS011;21916;52.428;13.302;2023-04-15T04:09:30;66.70;;;34.60;;
35795;SDS011;21916;52.428;13.302;2023-04-15T04:11:57;60.25;;;34.63;;
35795;SDS011;21916;52.428;13.302;2023-04-15T04:14:24;60.60;;;35.15;;
35795;SDS011;21916;52.428;13.302;2023-04-15T04:16:55;51.60;;;32.65;;
35795;SDS011;21916;52.428;13.302;2023-04-15T04:19:22;55.42;;;32.53;;
35795;SDS011;21916;52.428;13.302;2023-04-15T04:21:50;51.20;;;32.10;;
35795;SDS011;21916;52.428;13.302;2023-04-15T04:24:17;55.25;;;32.28;;
35795;SDS011;21916;52.428;13.302;2023-04-15T04:26:44;55.10;;;31.80;;
35795;SDS011;21916;52.428;13.302;2023-04-15T04:29:13;48.58;;;31.08;;
35795;SDS011;21916;52.428;13.302;2023-04-15T04:31:40;52.13;;;31.00;;
35795;SDS011;21916;52.428;13.302;2023-04-15T04:34:07;56.72;;;32.28;;
35795;SDS011;21916;52.428;13.302;2023-04-15T04:36:34;52.33;;;33.67;;
35795;SDS011;21916;52.428;13.302;2023-04-15T04:39:01;48.60;;;31.58;;
35795;SDS011;21916;52.428;13.302;2023-04-15T04:41:29;47.70;;;30.90;;
35795;SDS011;21916;52.428;13.302;2023-04-15T04:43:56;50.55;;;31.25;;
35795;SDS011;21916;52.428;13.302;2023-04-15T04:46:23;50.15;;;31.42;;
35795;SDS011;21916;52.428;13.302;2023-04-15T04:48:50;45.70;;;30.55;;
35795;SDS011;21916;52.428;13.302;2023-04-15T04:51:17;50.30;;;31.27;;
35795;SDS011;21916;52.428;13.302;2023-04-15T04:53:45;51.42;;;30.73;;
35795;SDS011;21916;52.428;13.302;2023-04-15T04:56:12;49.83;;;29.70;;
35795;SDS011;21916;52.428;13.302;2023-04-15T04:58:39;48.28;;;29.70;;
35795;SDS011;21916;52.428;13.302;2023-04-15T05:01:06;48.67;;;28.92;;
35795;SDS011;21916;52.428;13.302;2023-04-15T05:03:34;42.60;;;28.15;;
35795;SDS011;21916;52.428;13.302;2023-04-15T05:06:01;48.45;;;30.80;;
35795;SDS011;21916;52.428;13.302;2023-04-15T05:08:31;46.75;;;28.65;;
35795;SDS011;21916;52.428;13.302;2023-04-15T05:10:58;45.65;;;29.08;;
35795;SDS011;21916;52.428;13.302;2023-04-15T05:13:26;44.85;;;28.15;;
35795;SDS011;21916;52.428;13.302;2023-04-15T05:15:53;48.28;;;29.25;;
35795;SDS011;21916;52.428;13.302;2023-04-15T05:18:20;44.55;;;28.42;;
35795;SDS011;21916;52.428;13.302;2023-04-15T05:20:47;42.25;;;27.05;;
35795;SDS011;21916;52.428;13.302;2023-04-15T05:23:15;43.45;;;29.23;;
35795;SDS011;21916;52.428;13.302;2023-04-15T05:25:43;42.33;;;27.67;;
35795;SDS011;21916;52.428;13.302;2023-04-15T05:28:10;41.05;;;26.25;;
35795;SDS011;21916;52.428;13.302;2023-04-15T05:30:38;37.03;;;25.38;;
35795;SDS011;21916;52.428;13.302;2023-04-15T05:33:05;37.15;;;25.17;;
35795;SDS011;21916;52.428;13.302;2023-04-15T05:35:32;40.40;;;27.23;;
35795;SDS011;21916;52.428;13.302;2023-04-15T05:37:59;36.95;;;24.55;;
35795;SDS011;21916;52.428;13.302;2023-04-15T05:40:26;35.80;;;25.88;;
35795;SDS011;21916;52.428;13.302;2023-04-15T05:42:54;34.15;;;24.83;;
35795;SDS011;21916;52.428;13.302;2023-04-15T05:45:21;33.60;;;23.50;;
35795;SDS011;21916;52.428;13.302;2023-04-15T05:47:49;36.72;;;24.27;;
35795;SDS011;21916;52.428;13.302;2023-04-15T05:50:16;32.08;;;22.70;;
35795;SDS011;21916;52.428;13.302;2023-04-15T05:52:43;31.65;;;23.02;;
35795;SDS011;21916;52.428;13.302;2023-04-15T05:55:11;33.30;;;23.08;;
35795;SDS011;21916;52.428;13.302;2023-04-15T05:57:42;33.08;;;21.92;;
35795;SDS011;21916;52.428;13.302;2023-04-15T06:00:09;32.38;;;22.90;;
35795;SDS011;21916;52.428;13.302;2023-04-15T06:02:37;29.95;;;20.98;;
35795;SDS011;21916;52.428;13.302;2023-04-15T06:05:04;28.55;;;20.50;;
35795;SDS011;21916;52.428;13.302;2023-04-15T06:07:35;29.58;;;20.90;;
35795;SDS011;21916;52.428;13.302;2023-04-15T06:10:03;28.65;;;20.65;;
35795;SDS011;21916;52.428;13.302;2023-04-15T06:12:31;26.40;;;19.55;;
35795;SDS011;21916;52.428;13.302;2023-04-15T06:14:58;26.85;;;19.45;;
35795;SDS011;21916;52.428;13.302;2023-04-15T06:17:26;27.73;;;19.00;;
35795;SDS011;21916;52.428;13.302;2023-04-15T06:19:53;23.83;;;18.10;;
35795;SDS011;21916;52.428;13.302;2023-04-15T06:22:21;24.27;;;17.73;;
35795;SDS011;21916;52.428;13.302;2023-04-15T06:24:49;23.67;;;18.38;;
35795;SDS011;21916;52.428;13.302;2023-04-15T06:27:17;24.58;;;18.25;;
35795;SDS011;21916;52.428;13.302;2023-04-15T06:29:44;25.50;;;18.70;;
35795;SDS011;21916;52.428;13.302;2023-04-15T06:32:11;23.13;;;17.60;;
35795;SDS011;21916;52.428;13.302;2023-04-15T06:34:38;24.40;;;17.15;;
35795;SDS011;21916;52.428;13.302;2023-04-15T06:37:06;22.80;;;17.80;;
35795;SDS011;21916;52.428;13.302;2023-04-15T06:39:34;21.05;;;16.88;;
35795;SDS011;21916;52.428;13.302;2023-04-15T06:42:01;22.63;;;15.93;;
35795;SDS011;21916;52.428;13.302;2023-04-15T06:44:29;18.85;;;15.63;;
35795;SDS011;21916;52.428;13.302;2023-04-15T06:46:56;23.65;;;16.30;;
35795;SDS011;21916;52.428;13.302;2023-04-15T06:49:23;22.52;;;16.42;;
35795;SDS011;21916;52.428;13.302;2023-04-15T06:51:50;22.15;;;15.77;;
35795;SDS011;21916;52.428;13.302;2023-04-15T06:54:18;18.60;;;15.15;;
35795;SDS011;21916;52.428;13.302;2023-04-15T06:56:45;19.60;;;14.82;;
35795;SDS011;21916;52.428;13.302;2023-04-15T06:59:13;21.00;;;13.32;;
35795;SDS011;21916;52.428;13.302;2023-04-15T07:01:40;18.85;;;13.68;;
35795;SDS011;21916;52.428;13.302;2023-04-15T07:04:07;18.88;;;14.00;;
35795;SDS011;21916;52.428;13.302;2023-04-15T07:06:34;23.60;;;15.20;;
35795;SDS011;21916;52.428;13.302;2023-04-15T07:09:02;21.02;;;15.00;;
35795;SDS011;21916;52.428;13.302;2023-04-15T07:11:30;16.30;;;13.65;;
35795;SDS011;21916;52.428;13.302;2023-04-15T07:13:57;18.92;;;13.90;;
35795;SDS011;21916;52.428;13.302;2023-04-15T07:16:24;17.52;;;13.32;;
35795;SDS011;21916;52.428;13.302;2023-04-15T07:18:52;18.13;;;13.48;;
35795;SDS011;21916;52.428;13.302;2023-04-15T07:21:19;21.52;;;14.02;;
35795;SDS011;21916;52.428;13.302;2023-04-15T07:23:46;16.08;;;12.15;;
35795;SDS011;21916;52.428;13.302;2023-04-15T07:26:13;23.08;;;12.95;;
35795;SDS011;21916;52.428;13.302;2023-04-15T07:28:40;17.98;;;13.50;;
35795;SDS011;21916;52.428;13.302;2023-04-15T07:31:07;18.58;;;13.90;;
35795;SDS011;21916;52.428;13.302;2023-04-15T07:33:35;16.98;;;14.30;;
35795;SDS011;21916;52.428;13.302;2023-04-15T07:36:02;17.30;;;13.88;;
35795;SDS011;21916;52.428;13.302;2023-04-15T07:38:29;21.50;;;13.32;;
35795;SDS011;21916;52.428;13.302;2023-04-15T07:40:56;19.30;;;13.63;;
35795;SDS011;21916;52.428;13.302;2023-04-15T07:43:24;19.13;;;13.98;;
35795;SDS011;21916;52.428;13.302;2023-04-15T07:45:51;17.52;;;13.40;;
35795;SDS011;21916;52.428;13.302;2023-04-15T07:48:18;17.58;;;13.77;;
35795;SDS011;21916;52.428;13.302;2023-04-15T07:50:46;18.20;;;14.40;;
35795;SDS011;21916;52.428;13.302;2023-04-15T07:53:13;17.40;;;14.02;;
35795;SDS011;21916;52.428;13.302;2023-04-15T07:55:41;17.60;;;13.18;;
35795;SDS011;21916;52.428;13.302;2023-04-15T07:58:08;16.48;;;13.88;;
35795;SDS011;21916;52.428;13.302;2023-04-15T08:00:35;17.95;;;13.52;;
35795;SDS011;21916;52.428;13.302;2023-04-15T08:03:03;16.73;;;13.70;;
35795;SDS011;21916;52.428;13.302;2023-04-15T08:05:31;20.50;;;14.95;;
35795;SDS011;21916;52.428;13.302;2023-04-15T08:07:58;19.05;;;14.43;;
35795;SDS011;21916;52.428;13.302;2023-04-15T08:10:25;20.20;;;14.45;;
35795;SDS011;21916;52.428;13.302;2023-04-15T08:12:54;21.95;;;15.80;;
35795;SDS011;21916;52.428;13.302;2023-04-15T08:15:22;19.17;;;15.55;;
35795;SDS011;21916;52.428;13.302;2023-04-15T08:17:50;18.98;;;14.60;;
35795;SDS011;21916;52.428;13.302;2023-04-15T08:20:17;21.25;;;14.38;;
35795;SDS011;21916;52.428;13.302;2023-04-15T08:22:45;18.38;;;14.80;;
35795;SDS011;21916;52.428;13.302;2023-04-15T08:25:17;19.05;;;14.57;;
35795;SDS011;21916;52.428;13.302;2023-04-15T08:27:45;16.35;;;13.88;;
35795;SDS011;21916;52.428;13.302;2023-04-15T08:30:12;18.95;;;14.95;;
35795;SDS011;21916;52.428;13.302;2023-04-15T08:32:41;19.17;;;15.77;;
35795;SDS011;21916;52.428;13.302;2023-04-15T08:35:12;19.48;;;14.95;;
35795;SDS011;21916;52.428;13.302;2023-04-15T08:37:39;21.77;;;15.15;;
35795;SDS011;21916;52.428;13.302;2023-04-15T08:40:06;21.15;;;16.23;;
35795;SDS011;21916;52.428;13.302;2023-04-15T08:42:40;20.92;;;14.98;;
35795;SDS011;21916;52.428;13.302;2023-04-15T08:45:11;17.02;;;14.43;;
35795;SDS011;21916;52.428;13.302;2023-04-15T08:47:38;18.60;;;15.40;;
35795;SDS011;21916;52.428;13.302;2023-04-15T08:50:08;18.70;;;14.90;;
35795;SDS011;21916;52.428;13.302;2023-04-15T08:52:36;20.30;;;15.18;;
35795;SDS011;21916;52.428;13.302;2023-04-15T08:55:04;18.67;;;15.30;;
35795;SDS011;21916;52.428;13.302;2023-04-15T08:57:32;19.63;;;16.75;;
35795;SDS011;21916;52.428;13.302;2023-04-15T09:00:01;18.67;;;16.25;;
35795;SDS011;21916;52.428;13.302;2023-04-15T09:02:29;20.90;;;16.02;;
35795;SDS011;21916;52.428;13.302;2023-04-15T09:04:57;18.05;;;15.52;;
35795;SDS011;21916;52.428;13.302;2023-04-15T09:07:25;19.85;;;16.35;;
35795;SDS011;21916;52.428;13.302;2023-04-15T09:09:52;19.90;;;15.75;;
35795;SDS011;21916;52.428;13.302;2023-04-15T09:12:19;18.95;;;15.20;;
35795;SDS011;21916;52.428;13.302;2023-04-15T09:14:47;20.27;;;15.30;;
35795;SDS011;21916;52.428;13.302;2023-04-15T09:17:17;18.35;;;15.23;;
35795;SDS011;21916;52.428;13.302;2023-04-15T09:19:46;19.70;;;15.32;;
35795;SDS011;21916;52.428;13.302;2023-04-15T09:22:13;19.88;;;16.70;;
35795;SDS011;21916;52.428;13.302;2023-04-15T09:24:41;21.65;;;16.67;;
35795;SDS011;21916;52.428;13.302;2023-04-15T09:27:08;17.55;;;15.00;;
35795;SDS011;21916;52.428;13.302;2023-04-15T09:29:36;16.73;;;14.68;;
35795;SDS011;21916;52.428;13.302;2023-04-15T09:32:13;18.33;;;16.08;;
35795;SDS011;21916;52.428;13.302;2023-04-15T09:34:41;17.33;;;14.95;;
35795;SDS011;21916;52.428;13.302;2023-04-15T09:37:08;21.55;;;15.57;;
35795;SDS011;21916;52.428;13.302;2023-04-15T09:39:50;20.77;;;16.58;;
35795;SDS011;21916;52.428;13.302;2023-04-15T09:42:18;19.10;;;15.77;;
35795;SDS011;21916;52.428;13.302;2023-04-15T09:44:52;20.13;;;16.02;;
35795;SDS011;21916;52.428;13.302;2023-04-15T09:47:26;18.83;;;15.48;;
35795;SDS011;21916;52.428;13.302;2023-04-15T09:49:55;18.67;;;15.82;;
35795;SDS011;21916;52.428;13.302;2023-04-15T09:52:23;20.20;;;16.20;;
35795;SDS011;21916;52.428;13.302;2023-04-15T09:54:52;19.95;;;16.77;;
35795;SDS011;21916;52.428;13.302;2023-04-15T09:57:23;18.90;;;15.27;;
35795;SDS011;21916;52.428;13.302;2023-04-15T09:59:50;18.08;;;14.20;;
35795;SDS011;21916;52.428;13.302;2023-04-15T10:02:18;18.20;;;15.38;;
35795;SDS011;21916;52.428;13.302;2023-04-15T10:04:47;17.10;;;15.15;;
35795;SDS011;21916;52.428;13.302;2023-04-15T10:07:15;19.30;;;15.25;;
35795;SDS011;21916;52.428;13.302;2023-04-15T10:09:46;20.98;;;16.00;;
35795;SDS011;21916;52.428;13.302;2023-04-15T10:12:15;19.30;;;16.50;;
35795;SDS011;21916;52.428;13.302;2023-04-15T10:14:43;18.80;;;15.57;;
35795;SDS011;21916;52.428;13.302;2023-04-15T10:17:20;17.02;;;14.45;;
35795;SDS011;21916;52.428;13.302;2023-04-15T10:19:49;17.38;;;14.00;;
35795;SDS011;21916;52.428;13.302;2023-04-15T10:22:19;17.25;;;14.65;;
35795;SDS011;21916;52.428;13.302;2023-04-15T10:24:50;17.52;;;15.15;;
35795;SDS011;21916;52.428;13.302;2023-04-15T10:27:19;17.80;;;14.25;;
35795;SDS011;21916;52.428;13.302;2023-04-15T10:29:50;21.00;;;15.05;;
35795;SDS011;21916;52.428;13.302;2023-04-15T10:32:18;18.65;;;15.45;;
35795;SDS011;21916;52.428;13.302;2023-04-15T10:34:47;18.15;;;14.60;;
35795;SDS011;21916;52.428;13.302;2023-04-15T10:37:20;18.95;;;15.48;;
35795;SDS011;21916;52.428;13.302;2023-04-15T10:40:24;17.25;;;14.65;;
35795;SDS011;21916;52.428;13.302;2023-04-15T10:42:54;18.15;;;14.40;;
35795;SDS011;21916;52.428;13.302;2023-04-15T10:45:27;16.83;;;13.10;;
35795;SDS011;21916;52.428;13.302;2023-04-15T10:48:03;17.75;;;15.40;;
35795;SDS011;21916;52.428;13.302;2023-04-15T10:50:32;16.02;;;14.38;;
35795;SDS011;21916;52.428;13.302;2023-04-15T10:53:01;16.73;;;13.63;;
35795;SDS011;21916;52.428;13.302;2023-04-15T10:55:33;17.65;;;14.07;;
35795;SDS011;21916;52.428;13.302;2023-04-15T10:58:01;16.98;;;13.07;;
35795;SDS011;21916;52.428;13.302;2023-04-15T11:00:29;16.67;;;14.05;;
35795;SDS011;21916;52.428;13.302;2023-04-15T11:02:58;17.63;;;13.43;;
35795;SDS011;21916;52.428;13.302;2023-04-15T11:08:07;16.05;;;12.32;;
35795;SDS011;21916;52.428;13.302;2023-04-15T11:15:37;15.13;;;12.43;;
35795;SDS011;21916;52.428;13.302;2023-04-15T11:20:39;15.85;;;11.95;;
35795;SDS011;21916;52.428;13.302;2023-04-15T11:23:09;16.60;;;13.25;;
35795;SDS011;21916;52.428;13.302;2023-04-15T11:25:37;15.50;;;13.13;;
35795;SDS011;21916;52.428;13.302;2023-04-15T11:28:05;14.35;;;12.85;;
35795;SDS011;21916;52.428;13.302;2023-04-15T11:30:33;12.88;;;11.45;;
35795;SDS011;21916;52.428;13.302;2023-04-15T11:33:03;14.43;;;12.63;;
35795;SDS011;21916;52.428;13.302;2023-04-15T11:35:32;15.98;;;12.40;;
35795;SDS011;21916;52.428;13.302;2023-04-15T11:38:04;16.02;;;13.55;;
35795;SDS011;21916;52.428;13.302;2023-04-15T11:45:46;15.45;;;13.18;;
35795;SDS011;21916;52.428;13.302;2023-04-15T11:48:17;18.80;;;15.18;;
35795;SDS011;21916;52.428;13.302;2023-04-15T11:50:51;15.05;;;12.80;;
35795;SDS011;21916;52.428;13.302;2023-04-15T11:53:21;15.00;;;12.07;;
35795;SDS011;21916;52.428;13.302;2023-04-15T11:55:51;16.60;;;13.18;;
35795;SDS011;21916;52.428;13.302;2023-04-15T11:58:22;16.50;;;13.60;;
35795;SDS011;21916;52.428;13.302;2023-04-15T12:01:07;15.60;;;13.00;;
35795;SDS011;21916;52.428;13.302;2023-04-15T12:03:44;15.35;;;13.45;;
35795;SDS011;21916;52.428;13.302;2023-04-15T12:06:20;15.15;;;12.60;;
35795;SDS011;21916;52.428;13.302;2023-04-15T12:13:55;13.82;;;10.85;;
35795;SDS011;21916;52.428;13.302;2023-04-15T12:16:35;11.88;;;10.27;;
35795;SDS011;21916;52.428;13.302;2023-04-15T12:19:08;13.52;;;11.20;;
35795;SDS011;21916;52.428;13.302;2023-04-15T12:21:36;12.65;;;10.68;;
35795;SDS011;21916;52.428;13.302;2023-04-15T12:24:05;12.48;;;10.70;;
35795;SDS011;21916;52.428;13.302;2023-04-15T12:29:13;11.73;;;10.52;;
35795;SDS011;21916;52.428;13.302;2023-04-15T12:31:53;12.32;;;10.60;;
35795;SDS011;21916;52.428;13.302;2023-04-15T12:34:30;14.30;;;10.98;;
35795;SDS011;21916;52.428;13.302;2023-04-15T12:36:58;12.93;;;10.07;;
35795;SDS011;21916;52.428;13.302;2023-04-15T12:39:26;12.35;;;10.88;;
35795;SDS011;21916;52.428;13.302;2023-04-15T12:41:54;11.85;;;10.50;;
35795;SDS011;21916;52.428;13.302;2023-04-15T12:44:21;12.48;;;10.38;;
35795;SDS011;21916;52.428;13.302;2023-04-15T12:46:48;10.73;;;9.50;;
35795;SDS011;21916;52.428;13.302;2023-04-15T12:49:14;12.57;;;10.82;;
35795;SDS011;21916;52.428;13.302;2023-04-15T12:51:43;11.40;;;9.90;;
35795;SDS011;21916;52.428;13.302;2023-04-15T12:54:09;12.55;;;10.07;;
35795;SDS011;21916;52.428;13.302;2023-04-15T12:56:35;10.85;;;9.57;;
35795;SDS011;21916;52.428;13.302;2023-04-15T12:59:01;11.35;;;9.82;;
35795;SDS011;21916;52.428;13.302;2023-04-15T13:01:27;11.57;;;9.70;;
35795;SDS011;21916;52.428;13.302;2023-04-15T13:03:53;11.55;;;9.48;;
35795;SDS011;21916;52.428;13.302;2023-04-15T13:06:20;10.77;;;9.57;;
35795;SDS011;21916;52.428;13.302;2023-04-15T13:08:46;12.25;;;8.45;;
35795;SDS011;21916;52.428;13.302;2023-04-15T13:11:12;12.27;;;9.05;;
35795;SDS011;21916;52.428;13.302;2023-04-15T13:13:38;11.05;;;9.32;;
35795;SDS011;21916;52.428;13.302;2023-04-15T13:16:04;11.05;;;9.07;;
35795;SDS011;21916;52.428;13.302;2023-04-15T13:18:31;9.73;;;8.40;;
35795;SDS011;21916;52.428;13.302;2023-04-15T13:20:59;10.80;;;8.98;;
35795;SDS011;21916;52.428;13.302;2023-04-15T13:23:25;11.15;;;8.93;;
35795;SDS011;21916;52.428;13.302;2023-04-15T13:25:52;10.57;;;8.90;;
35795;SDS011;21916;52.428;13.302;2023-04-15T13:28:18;12.02;;;9.57;;
35795;SDS011;21916;52.428;13.302;2023-04-15T13:30:44;11.32;;;9.23;;
35795;SDS011;21916;52.428;13.302;2023-04-15T13:33:11;10.52;;;8.48;;
35795;SDS011;21916;52.428;13.302;2023-04-15T13:35:37;9.48;;;8.48;;
35795;SDS011;21916;52.428;13.302;2023-04-15T13:38:04;10.30;;;8.60;;
35795;SDS011;21916;52.428;13.302;2023-04-15T13:40:30;8.50;;;7.63;;
35795;SDS011;21916;52.428;13.302;2023-04-15T13:42:56;8.45;;;7.28;;
35795;SDS011;21916;52.428;13.302;2023-04-15T13:45:22;10.55;;;8.13;;
35795;SDS011;21916;52.428;13.302;2023-04-15T13:47:48;8.40;;;7.53;;
35795;SDS011;21916;52.428;13.302;2023-04-15T13:50:14;9.48;;;7.85;;
35795;SDS011;21916;52.428;13.302;2023-04-15T13:52:40;9.18;;;7.78;;
35795;SDS011;21916;52.428;13.302;2023-04-15T13:55:06;11.23;;;8.23;;
35795;SDS011;21916;52.428;13.302;2023-04-15T13:57:32;9.32;;;8.32;;
35795;SDS011;21916;52.428;13.302;2023-04-15T13:59:58;9.45;;;8.45;;
35795;SDS011;21916;52.428;13.302;2023-04-15T14:02:24;9.90;;;8.90;;
35795;SDS011;21916;52.428;13.302;2023-04-15T14:04:50;12.27;;;9.00;;
35795;SDS011;21916;52.428;13.302;2023-04-15T14:07:16;12.07;;;9.15;;
35795;SDS011;21916;52.428;13.302;2023-04-15T14:09:42;10.63;;;9.05;;
35795;SDS011;21916;52.428;13.302;2023-04-15T14:12:09;9.40;;;8.32;;
35795;SDS011;21916;52.428;13.302;2023-04-15T14:14:35;11.10;;;8.30;;
35795;SDS011;21916;52.428;13.302;2023-04-15T14:17:01;10.07;;;8.38;;
35795;SDS011;21916;52.428;13.302;2023-04-15T14:19:29;11.00;;;8.35;;
35795;SDS011;21916;52.428;13.302;2023-04-15T14:21:55;9.95;;;8.95;;
35795;SDS011;21916;52.428;13.302;2023-04-15T14:24:22;10.02;;;8.65;;
35795;SDS011;21916;52.428;13.302;2023-04-15T14:26:47;15.20;;;9.15;;
35795;SDS011;21916;52.428;13.302;2023-04-15T14:29:13;9.57;;;8.52;;
35795;SDS011;21916;52.428;13.302;2023-04-15T14:31:39;10.38;;;7.70;;
35795;SDS011;21916;52.428;13.302;2023-04-15T14:34:05;20.15;;;12.70;;
35795;SDS011;21916;52.428;13.302;2023-04-15T14:36:31;16.30;;;11.88;;
35795;SDS011;21916;52.428;13.302;2023-04-15T14:38:57;9.98;;;8.15;;